sensor_id;sensor_type;location;lat;lon;timestamp;P1;durP1;ratioP1;P2;durP2;ratioP2
47960;SDS011;33721;48.852;9.936;2024-01-30T00:01:15;32.55;;;14.88;;
47960;SDS011;33721;48.852;9.936;2024-01-30T00:03:41;34.42;;;14.27;;
47960;SDS011;33721;48.852;9.936;2024-01-30T00:06:07;30.55;;;13.80;;
47960;SDS011;33721;48.852;9.936;2024-01-30T00:08:33;37.20;;;15.48;;
47960;SDS011;33721;48.852;9.936;2024-01-30T00:10:59;37.13;;;15.68;;
47960;SDS011;33721;48.852;9.936;2024-01-30T00:13:25;35.28;;;15.65;;
47960;SDS011;33721;48.852;9.936;2024-01-30T00:15:52;35.70;;;15.65;;
47960;SDS011;33721;48.852;9.936;2024-01-30T00:18:17;34.22;;;15.35;;
47960;SDS011;33721;48.852;9.936;2024-01-30T00:20:43;34.38;;;14.70;;
47960;SDS011;33721;48.852;9.936;2024-01-30T00:23:09;34.45;;;14.25;;
47960;SDS011;33721;48.852;9.936;2024-01-30T00:25:35;37.05;;;14.88;;
47960;SDS011;33721;48.852;9.936;2024-01-30T00:28:00;33.95;;;14.82;;
47960;SDS011;33721;48.852;9.936;2024-01-30T00:30:26;33.75;;;14.43;;
47960;SDS011;33721;48.852;9.936;2024-01-30T00:32:52;39.10;;;14.63;;
47960;SDS011;33721;48.852;9.936;2024-01-30T00:35:18;39.38;;;15.75;;
47960;SDS011;33721;48.852;9.936;2024-01-30T00:37:43;36.58;;;15.02;;
47960;SDS011;33721;48.852;9.936;2024-01-30T00:40:09;40.22;;;15.68;;
47960;SDS011;33721;48.852;9.936;2024-01-30T00:42:40;33.97;;;13.95;;
47960;SDS011;33721;48.852;9.936;2024-01-30T00:45:12;35.10;;;14.60;;
47960;SDS011;33721;48.852;9.936;2024-01-30T00:47:41;32.58;;;13.98;;
47960;SDS011;33721;48.852;9.936;2024-01-30T00:50:07;38.72;;;15.85;;
47960;SDS011;33721;48.852;9.936;2024-01-30T00:52:33;39.53;;;15.45;;
47960;SDS011;33721;48.852;9.936;2024-01-30T00:54:59;35.72;;;15.70;;
47960;SDS011;33721;48.852;9.936;2024-01-30T00:57:25;43.45;;;16.40;;
47960;SDS011;33721;48.852;9.936;2024-01-30T00:59:52;37.13;;;15.85;;
47960;SDS011;33721;48.852;9.936;2024-01-30T01:02:17;35.35;;;15.50;;
47960;SDS011;33721;48.852;9.936;2024-01-30T01:04:43;36.10;;;15.15;;
47960;SDS011;33721;48.852;9.936;2024-01-30T01:07:10;33.58;;;14.30;;
47960;SDS011;33721;48.852;9.936;2024-01-30T01:09:36;32.55;;;15.32;;
47960;SDS011;33721;48.852;9.936;2024-01-30T01:12:02;39.70;;;15.07;;
47960;SDS011;33721;48.852;9.936;2024-01-30T01:14:28;37.22;;;15.27;;
47960;SDS011;33721;48.852;9.936;2024-01-30T01:16:53;31.13;;;14.70;;
47960;SDS011;33721;48.852;9.936;2024-01-30T01:19:19;32.15;;;13.60;;
47960;SDS011;33721;48.852;9.936;2024-01-30T01:21:45;32.33;;;13.65;;
47960;SDS011;33721;48.852;9.936;2024-01-30T01:24:10;29.75;;;12.85;;
47960;SDS011;33721;48.852;9.936;2024-01-30T01:26:36;32.53;;;14.02;;
47960;SDS011;33721;48.852;9.936;2024-01-30T01:29:01;30.48;;;12.65;;
47960;SDS011;33721;48.852;9.936;2024-01-30T01:31:29;29.15;;;12.65;;
47960;SDS011;33721;48.852;9.936;2024-01-30T01:33:55;30.85;;;13.52;;
47960;SDS011;33721;48.852;9.936;2024-01-30T01:36:20;30.85;;;13.50;;
47960;SDS011;33721;48.852;9.936;2024-01-30T01:38:46;27.48;;;12.95;;
47960;SDS011;33721;48.852;9.936;2024-01-30T01:41:12;34.00;;;13.82;;
47960;SDS011;33721;48.852;9.936;2024-01-30T01:43:37;32.63;;;13.77;;
47960;SDS011;33721;48.852;9.936;2024-01-30T01:46:04;26.92;;;12.52;;
47960;SDS011;33721;48.852;9.936;2024-01-30T01:48:31;28.35;;;12.98;;
47960;SDS011;33721;48.852;9.936;2024-01-30T01:50:58;33.90;;;13.93;;
47960;SDS011;33721;48.852;9.936;2024-01-30T01:53:24;33.13;;;12.98;;
47960;SDS011;33721;48.852;9.936;2024-01-30T01:55:50;28.77;;;12.88;;
47960;SDS011;33721;48.852;9.936;2024-01-30T01:58:18;29.08;;;12.88;;
47960;SDS011;33721;48.852;9.936;2024-01-30T02:00:46;28.45;;;12.68;;
47960;SDS011;33721;48.852;9.936;2024-01-30T02:03:12;30.45;;;12.98;;
47960;SDS011;33721;48.852;9.936;2024-01-30T02:05:42;33.22;;;12.85;;
47960;SDS011;33721;48.852;9.936;2024-01-30T02:08:07;29.27;;;13.00;;
47960;SDS011;33721;48.852;9.936;2024-01-30T02:10:33;34.15;;;13.80;;
47960;SDS011;33721;48.852;9.936;2024-01-30T02:12:59;31.88;;;12.93;;
47960;SDS011;33721;48.852;9.936;2024-01-30T02:15:25;32.70;;;12.90;;
47960;SDS011;33721;48.852;9.936;2024-01-30T02:17:50;29.70;;;13.10;;
47960;SDS011;33721;48.852;9.936;2024-01-30T02:20:16;29.20;;;12.57;;
47960;SDS011;33721;48.852;9.936;2024-01-30T02:22:42;29.02;;;12.35;;
47960;SDS011;33721;48.852;9.936;2024-01-30T02:25:08;31.80;;;12.68;;
47960;SDS011;33721;48.852;9.936;2024-01-30T02:27:34;26.20;;;11.82;;
47960;SDS011;33721;48.852;9.936;2024-01-30T02:29:59;30.27;;;12.32;;
47960;SDS011;33721;48.852;9.936;2024-01-30T02:32:25;30.10;;;12.48;;
47960;SDS011;33721;48.852;9.936;2024-01-30T02:34:50;25.13;;;11.15;;
47960;SDS011;33721;48.852;9.936;2024-01-30T02:37:16;27.02;;;12.57;;
47960;SDS011;33721;48.852;9.936;2024-01-30T02:39:42;26.42;;;11.75;;
47960;SDS011;33721;48.852;9.936;2024-01-30T02:42:08;31.95;;;12.30;;
47960;SDS011;33721;48.852;9.936;2024-01-30T02:44:33;24.98;;;10.73;;
47960;SDS011;33721;48.852;9.936;2024-01-30T02:46:59;27.50;;;11.52;;
47960;SDS011;33721;48.852;9.936;2024-01-30T02:49:24;24.65;;;10.95;;
47960;SDS011;33721;48.852;9.936;2024-01-30T02:51:51;30.02;;;11.60;;
47960;SDS011;33721;48.852;9.936;2024-01-30T02:54:17;27.75;;;11.43;;
47960;SDS011;33721;48.852;9.936;2024-01-30T02:56:43;25.50;;;11.52;;
47960;SDS011;33721;48.852;9.936;2024-01-30T02:59:09;25.65;;;11.65;;
47960;SDS011;33721;48.852;9.936;2024-01-30T03:01:41;28.95;;;11.88;;
47960;SDS011;33721;48.852;9.936;2024-01-30T03:04:08;30.92;;;11.95;;
47960;SDS011;33721;48.852;9.936;2024-01-30T03:06:33;27.55;;;11.77;;
47960;SDS011;33721;48.852;9.936;2024-01-30T03:08:59;27.95;;;11.80;;
47960;SDS011;33721;48.852;9.936;2024-01-30T03:11:24;25.08;;;10.75;;
47960;SDS011;33721;48.852;9.936;2024-01-30T03:13:50;30.60;;;12.30;;
47960;SDS011;33721;48.852;9.936;2024-01-30T03:16:16;26.92;;;11.30;;
47960;SDS011;33721;48.852;9.936;2024-01-30T03:18:42;24.33;;;11.10;;
47960;SDS011;33721;48.852;9.936;2024-01-30T03:21:07;25.75;;;11.23;;
47960;SDS011;33721;48.852;9.936;2024-01-30T03:23:33;26.38;;;11.13;;
47960;SDS011;33721;48.852;9.936;2024-01-30T03:25:58;28.73;;;12.02;;
47960;SDS011;33721;48.852;9.936;2024-01-30T03:28:24;26.40;;;11.88;;
47960;SDS011;33721;48.852;9.936;2024-01-30T03:30:50;28.63;;;11.95;;
47960;SDS011;33721;48.852;9.936;2024-01-30T03:33:15;27.88;;;11.73;;
47960;SDS011;33721;48.852;9.936;2024-01-30T03:35:41;27.50;;;11.75;;
47960;SDS011;33721;48.852;9.936;2024-01-30T03:38:06;26.60;;;11.45;;
47960;SDS011;33721;48.852;9.936;2024-01-30T03:40:32;25.77;;;11.38;;
47960;SDS011;33721;48.852;9.936;2024-01-30T03:42:58;28.58;;;11.88;;
47960;SDS011;33721;48.852;9.936;2024-01-30T03:45:23;24.67;;;10.43;;
47960;SDS011;33721;48.852;9.936;2024-01-30T03:47:49;26.48;;;11.27;;
47960;SDS011;33721;48.852;9.936;2024-01-30T03:50:15;25.10;;;11.02;;
47960;SDS011;33721;48.852;9.936;2024-01-30T03:52:40;25.38;;;11.32;;
47960;SDS011;33721;48.852;9.936;2024-01-30T03:55:06;26.95;;;11.40;;
47960;SDS011;33721;48.852;9.936;2024-01-30T03:57:32;29.20;;;11.55;;
47960;SDS011;33721;48.852;9.936;2024-01-30T03:59:57;23.23;;;10.68;;
47960;SDS011;33721;48.852;9.936;2024-01-30T04:02:23;29.15;;;11.68;;
47960;SDS011;33721;48.852;9.936;2024-01-30T04:04:48;25.63;;;10.40;;
47960;SDS011;33721;48.852;9.936;2024-01-30T04:07:14;26.10;;;11.45;;
47960;SDS011;33721;48.852;9.936;2024-01-30T04:09:40;26.55;;;11.50;;
47960;SDS011;33721;48.852;9.936;2024-01-30T04:12:05;25.25;;;10.80;;
47960;SDS011;33721;48.852;9.936;2024-01-30T04:14:31;27.33;;;11.60;;
47960;SDS011;33721;48.852;9.936;2024-01-30T04:16:57;27.92;;;11.20;;
47960;SDS011;33721;48.852;9.936;2024-01-30T04:19:22;26.02;;;11.35;;
47960;SDS011;33721;48.852;9.936;2024-01-30T04:21:48;28.73;;;11.45;;
47960;SDS011;33721;48.852;9.936;2024-01-30T04:24:13;23.70;;;10.70;;
47960;SDS011;33721;48.852;9.936;2024-01-30T04:26:42;27.85;;;11.55;;
47960;SDS011;33721;48.852;9.936;2024-01-30T04:29:07;28.23;;;10.57;;
47960;SDS011;33721;48.852;9.936;2024-01-30T04:31:33;27.50;;;11.60;;
47960;SDS011;33721;48.852;9.936;2024-01-30T04:34:00;28.58;;;11.95;;
47960;SDS011;33721;48.852;9.936;2024-01-30T04:36:26;25.73;;;10.82;;
47960;SDS011;33721;48.852;9.936;2024-01-30T04:38:52;28.88;;;11.45;;
47960;SDS011;33721;48.852;9.936;2024-01-30T04:41:17;26.85;;;10.93;;
47960;SDS011;33721;48.852;9.936;2024-01-30T04:43:43;30.20;;;11.55;;
47960;SDS011;33721;48.852;9.936;2024-01-30T04:46:08;25.65;;;10.80;;
47960;SDS011;33721;48.852;9.936;2024-01-30T04:48:34;27.85;;;11.05;;
47960;SDS011;33721;48.852;9.936;2024-01-30T04:51:00;24.38;;;10.82;;
47960;SDS011;33721;48.852;9.936;2024-01-30T04:53:29;28.38;;;11.23;;
47960;SDS011;33721;48.852;9.936;2024-01-30T04:55:55;23.80;;;10.95;;
47960;SDS011;33721;48.852;9.936;2024-01-30T04:58:21;25.65;;;11.80;;
47960;SDS011;33721;48.852;9.936;2024-01-30T05:00:46;29.85;;;11.73;;
47960;SDS011;33721;48.852;9.936;2024-01-30T05:03:16;28.10;;;11.80;;
47960;SDS011;33721;48.852;9.936;2024-01-30T05:05:43;30.38;;;12.70;;
47960;SDS011;33721;48.852;9.936;2024-01-30T05:08:09;22.70;;;11.15;;
47960;SDS011;33721;48.852;9.936;2024-01-30T05:10:34;30.08;;;12.00;;
47960;SDS011;33721;48.852;9.936;2024-01-30T05:13:00;26.73;;;11.52;;
47960;SDS011;33721;48.852;9.936;2024-01-30T05:15:25;24.58;;;11.15;;
47960;SDS011;33721;48.852;9.936;2024-01-30T05:17:51;26.00;;;11.70;;
47960;SDS011;33721;48.852;9.936;2024-01-30T05:20:17;32.72;;;12.13;;
47960;SDS011;33721;48.852;9.936;2024-01-30T05:22:43;26.58;;;11.35;;
47960;SDS011;33721;48.852;9.936;2024-01-30T05:25:10;29.17;;;11.73;;
47960;SDS011;33721;48.852;9.936;2024-01-30T05:27:37;30.10;;;11.60;;
47960;SDS011;33721;48.852;9.936;2024-01-30T05:30:03;29.45;;;12.32;;
47960;SDS011;33721;48.852;9.936;2024-01-30T05:32:29;26.33;;;11.80;;
47960;SDS011;33721;48.852;9.936;2024-01-30T05:34:55;25.50;;;11.50;;
47960;SDS011;33721;48.852;9.936;2024-01-30T05:37:21;28.73;;;12.27;;
47960;SDS011;33721;48.852;9.936;2024-01-30T05:39:46;29.17;;;11.75;;
47960;SDS011;33721;48.852;9.936;2024-01-30T05:42:12;27.13;;;12.02;;
47960;SDS011;33721;48.852;9.936;2024-01-30T05:44:37;26.25;;;12.27;;
47960;SDS011;33721;48.852;9.936;2024-01-30T05:47:03;27.65;;;12.60;;
47960;SDS011;33721;48.852;9.936;2024-01-30T05:49:29;30.73;;;12.23;;
47960;SDS011;33721;48.852;9.936;2024-01-30T05:51:54;28.45;;;12.00;;
47960;SDS011;33721;48.852;9.936;2024-01-30T05:54:20;30.73;;;12.30;;
47960;SDS011;33721;48.852;9.936;2024-01-30T05:56:46;33.47;;;12.73;;
47960;SDS011;33721;48.852;9.936;2024-01-30T05:59:11;28.52;;;12.85;;
47960;SDS011;33721;48.852;9.936;2024-01-30T06:01:37;25.67;;;11.73;;
47960;SDS011;33721;48.852;9.936;2024-01-30T06:04:03;32.47;;;13.32;;
47960;SDS011;33721;48.852;9.936;2024-01-30T06:06:28;28.55;;;12.52;;
47960;SDS011;33721;48.852;9.936;2024-01-30T06:08:54;32.17;;;12.55;;
47960;SDS011;33721;48.852;9.936;2024-01-30T06:11:21;28.58;;;12.20;;
47960;SDS011;33721;48.852;9.936;2024-01-30T06:13:46;32.85;;;14.10;;
47960;SDS011;33721;48.852;9.936;2024-01-30T06:16:12;36.25;;;15.82;;
47960;SDS011;33721;48.852;9.936;2024-01-30T06:18:38;33.47;;;14.82;;
47960;SDS011;33721;48.852;9.936;2024-01-30T06:21:04;31.08;;;12.68;;
47960;SDS011;33721;48.852;9.936;2024-01-30T06:23:30;26.17;;;11.98;;
47960;SDS011;33721;48.852;9.936;2024-01-30T06:25:55;30.75;;;13.05;;
47960;SDS011;33721;48.852;9.936;2024-01-30T06:28:21;29.23;;;12.50;;
47960;SDS011;33721;48.852;9.936;2024-01-30T06:30:47;34.15;;;13.50;;
47960;SDS011;33721;48.852;9.936;2024-01-30T06:33:12;33.05;;;13.80;;
47960;SDS011;33721;48.852;9.936;2024-01-30T06:35:38;31.17;;;12.88;;
47960;SDS011;33721;48.852;9.936;2024-01-30T06:38:05;32.05;;;12.73;;
47960;SDS011;33721;48.852;9.936;2024-01-30T06:40:31;30.35;;;12.65;;
47960;SDS011;33721;48.852;9.936;2024-01-30T06:42:56;29.92;;;12.93;;
47960;SDS011;33721;48.852;9.936;2024-01-30T06:45:22;35.55;;;13.40;;
47960;SDS011;33721;48.852;9.936;2024-01-30T06:47:48;31.33;;;12.20;;
47960;SDS011;33721;48.852;9.936;2024-01-30T06:50:13;31.00;;;13.07;;
47960;SDS011;33721;48.852;9.936;2024-01-30T06:52:42;30.55;;;12.18;;
47960;SDS011;33721;48.852;9.936;2024-01-30T06:55:08;29.83;;;12.55;;
47960;SDS011;33721;48.852;9.936;2024-01-30T06:57:35;31.30;;;13.15;;
47960;SDS011;33721;48.852;9.936;2024-01-30T07:00:00;31.95;;;12.93;;
47960;SDS011;33721;48.852;9.936;2024-01-30T07:02:26;33.85;;;12.90;;
47960;SDS011;33721;48.852;9.936;2024-01-30T07:04:51;29.55;;;13.65;;
47960;SDS011;33721;48.852;9.936;2024-01-30T07:07:17;30.83;;;12.75;;
47960;SDS011;33721;48.852;9.936;2024-01-30T07:09:43;31.13;;;13.85;;
47960;SDS011;33721;48.852;9.936;2024-01-30T07:12:08;29.23;;;12.60;;
47960;SDS011;33721;48.852;9.936;2024-01-30T07:14:34;32.38;;;11.90;;
47960;SDS011;33721;48.852;9.936;2024-01-30T07:17:00;28.25;;;12.38;;
47960;SDS011;33721;48.852;9.936;2024-01-30T07:19:26;30.98;;;12.82;;
47960;SDS011;33721;48.852;9.936;2024-01-30T07:21:52;26.02;;;11.75;;
47960;SDS011;33721;48.852;9.936;2024-01-30T07:24:17;26.15;;;11.18;;
47960;SDS011;33721;48.852;9.936;2024-01-30T07:26:43;24.92;;;10.80;;
47960;SDS011;33721;48.852;9.936;2024-01-30T07:29:09;24.02;;;11.13;;
47960;SDS011;33721;48.852;9.936;2024-01-30T07:31:34;25.33;;;10.82;;
47960;SDS011;33721;48.852;9.936;2024-01-30T07:34:00;26.50;;;9.73;;
47960;SDS011;33721;48.852;9.936;2024-01-30T07:36:25;20.88;;;9.65;;
47960;SDS011;33721;48.852;9.936;2024-01-30T07:38:51;24.15;;;9.77;;
47960;SDS011;33721;48.852;9.936;2024-01-30T07:41:19;20.70;;;9.70;;
47960;SDS011;33721;48.852;9.936;2024-01-30T07:43:44;21.30;;;9.57;;
47960;SDS011;33721;48.852;9.936;2024-01-30T07:46:10;26.25;;;10.45;;
47960;SDS011;33721;48.852;9.936;2024-01-30T07:48:36;22.80;;;9.88;;
47960;SDS011;33721;48.852;9.936;2024-01-30T07:51:01;22.33;;;9.70;;
47960;SDS011;33721;48.852;9.936;2024-01-30T07:53:28;25.42;;;10.18;;
47960;SDS011;33721;48.852;9.936;2024-01-30T07:55:54;23.70;;;9.65;;
47960;SDS011;33721;48.852;9.936;2024-01-30T07:58:20;22.60;;;10.05;;
47960;SDS011;33721;48.852;9.936;2024-01-30T08:00:45;23.15;;;9.95;;
47960;SDS011;33721;48.852;9.936;2024-01-30T08:03:11;23.02;;;9.88;;
47960;SDS011;33721;48.852;9.936;2024-01-30T08:05:37;25.73;;;11.00;;
47960;SDS011;33721;48.852;9.936;2024-01-30T08:08:04;25.67;;;11.20;;
47960;SDS011;33721;48.852;9.936;2024-01-30T08:10:29;26.00;;;11.70;;
47960;SDS011;33721;48.852;9.936;2024-01-30T08:12:55;34.10;;;13.02;;
47960;SDS011;33721;48.852;9.936;2024-01-30T08:15:21;25.48;;;11.48;;
47960;SDS011;33721;48.852;9.936;2024-01-30T08:17:46;21.50;;;10.68;;
47960;SDS011;33721;48.852;9.936;2024-01-30T08:20:12;25.58;;;10.88;;
47960;SDS011;33721;48.852;9.936;2024-01-30T08:22:38;23.30;;;11.00;;
47960;SDS011;33721;48.852;9.936;2024-01-30T08:25:07;22.88;;;9.88;;
47960;SDS011;33721;48.852;9.936;2024-01-30T08:27:34;20.20;;;9.85;;
47960;SDS011;33721;48.852;9.936;2024-01-30T08:30:02;25.38;;;10.38;;
47960;SDS011;33721;48.852;9.936;2024-01-30T08:32:28;22.98;;;10.90;;
47960;SDS011;33721;48.852;9.936;2024-01-30T08:34:54;23.48;;;10.95;;
47960;SDS011;33721;48.852;9.936;2024-01-30T08:37:19;24.52;;;11.32;;
47960;SDS011;33721;48.852;9.936;2024-01-30T08:39:45;23.63;;;11.25;;
47960;SDS011;33721;48.852;9.936;2024-01-30T08:42:11;26.45;;;11.23;;
47960;SDS011;33721;48.852;9.936;2024-01-30T08:44:36;28.98;;;10.73;;
47960;SDS011;33721;48.852;9.936;2024-01-30T08:47:03;23.83;;;10.35;;
47960;SDS011;33721;48.852;9.936;2024-01-30T08:49:29;23.17;;;11.38;;
47960;SDS011;33721;48.852;9.936;2024-01-30T08:51:55;27.25;;;12.43;;
47960;SDS011;33721;48.852;9.936;2024-01-30T08:54:20;24.30;;;11.60;;
47960;SDS011;33721;48.852;9.936;2024-01-30T08:56:46;26.48;;;11.27;;
47960;SDS011;33721;48.852;9.936;2024-01-30T08:59:11;23.88;;;11.00;;
47960;SDS011;33721;48.852;9.936;2024-01-30T09:01:37;25.35;;;10.80;;
47960;SDS011;33721;48.852;9.936;2024-01-30T09:04:03;26.02;;;10.90;;
47960;SDS011;33721;48.852;9.936;2024-01-30T09:06:28;23.02;;;10.75;;
47960;SDS011;33721;48.852;9.936;2024-01-30T09:08:54;24.60;;;11.15;;
47960;SDS011;33721;48.852;9.936;2024-01-30T09:11:20;25.80;;;11.77;;
47960;SDS011;33721;48.852;9.936;2024-01-30T09:13:45;26.75;;;11.75;;
47960;SDS011;33721;48.852;9.936;2024-01-30T09:16:11;24.52;;;11.50;;
47960;SDS011;33721;48.852;9.936;2024-01-30T09:18:37;23.23;;;10.88;;
47960;SDS011;33721;48.852;9.936;2024-01-30T09:21:02;30.08;;;13.15;;
47960;SDS011;33721;48.852;9.936;2024-01-30T09:23:28;29.90;;;12.45;;
47960;SDS011;33721;48.852;9.936;2024-01-30T09:25:53;31.63;;;14.00;;
47960;SDS011;33721;48.852;9.936;2024-01-30T09:28:20;34.10;;;14.70;;
47960;SDS011;33721;48.852;9.936;2024-01-30T09:30:45;37.75;;;14.82;;
47960;SDS011;33721;48.852;9.936;2024-01-30T09:33:11;38.10;;;15.25;;
47960;SDS011;33721;48.852;9.936;2024-01-30T09:35:37;32.40;;;14.82;;
47960;SDS011;33721;48.852;9.936;2024-01-30T09:38:02;34.67;;;14.65;;
47960;SDS011;33721;48.852;9.936;2024-01-30T09:40:28;33.47;;;14.95;;
47960;SDS011;33721;48.852;9.936;2024-01-30T09:42:54;30.08;;;14.80;;
47960;SDS011;33721;48.852;9.936;2024-01-30T09:45:23;33.88;;;14.57;;
47960;SDS011;33721;48.852;9.936;2024-01-30T09:47:50;34.70;;;15.32;;
47960;SDS011;33721;48.852;9.936;2024-01-30T09:50:15;30.67;;;14.68;;
47960;SDS011;33721;48.852;9.936;2024-01-30T09:52:42;31.33;;;14.73;;
47960;SDS011;33721;48.852;9.936;2024-01-30T09:55:09;29.33;;;14.30;;
47960;SDS011;33721;48.852;9.936;2024-01-30T09:57:35;31.48;;;15.27;;
47960;SDS011;33721;48.852;9.936;2024-01-30T10:00:02;28.75;;;14.38;;
47960;SDS011;33721;48.852;9.936;2024-01-30T10:02:33;29.20;;;14.43;;
47960;SDS011;33721;48.852;9.936;2024-01-30T10:04:59;31.83;;;15.90;;
47960;SDS011;33721;48.852;9.936;2024-01-30T10:07:25;32.35;;;16.05;;
47960;SDS011;33721;48.852;9.936;2024-01-30T10:09:50;31.95;;;15.82;;
47960;SDS011;33721;48.852;9.936;2024-01-30T10:12:18;37.40;;;16.52;;
47960;SDS011;33721;48.852;9.936;2024-01-30T10:14:44;36.50;;;16.08;;
47960;SDS011;33721;48.852;9.936;2024-01-30T10:17:10;31.80;;;15.75;;
47960;SDS011;33721;48.852;9.936;2024-01-30T10:19:40;32.95;;;15.43;;
47960;SDS011;33721;48.852;9.936;2024-01-30T10:22:06;35.45;;;16.30;;
47960;SDS011;33721;48.852;9.936;2024-01-30T10:24:33;33.42;;;15.95;;
47960;SDS011;33721;48.852;9.936;2024-01-30T10:26:59;35.00;;;15.38;;
47960;SDS011;33721;48.852;9.936;2024-01-30T10:29:26;30.27;;;14.98;;
47960;SDS011;33721;48.852;9.936;2024-01-30T10:34:24;30.20;;;15.60;;
47960;SDS011;33721;48.852;9.936;2024-01-30T10:36:51;30.85;;;15.88;;
47960;SDS011;33721;48.852;9.936;2024-01-30T10:39:25;31.98;;;15.57;;
47960;SDS011;33721;48.852;9.936;2024-01-30T10:41:59;33.70;;;16.48;;
47960;SDS011;33721;48.852;9.936;2024-01-30T10:44:30;39.83;;;16.75;;
47960;SDS011;33721;48.852;9.936;2024-01-30T10:47:26;32.53;;;16.55;;
47960;SDS011;33721;48.852;9.936;2024-01-30T10:49:54;32.95;;;16.85;;
47960;SDS011;33721;48.852;9.936;2024-01-30T10:52:21;31.08;;;15.93;;
47960;SDS011;33721;48.852;9.936;2024-01-30T10:54:50;36.70;;;14.73;;
47960;SDS011;33721;48.852;9.936;2024-01-30T10:57:17;32.97;;;15.90;;
47960;SDS011;33721;48.852;9.936;2024-01-30T10:59:43;30.65;;;14.63;;
47960;SDS011;33721;48.852;9.936;2024-01-30T11:02:12;26.65;;;13.70;;
47960;SDS011;33721;48.852;9.936;2024-01-30T11:04:40;27.42;;;13.75;;
47960;SDS011;33721;48.852;9.936;2024-01-30T11:09:51;27.85;;;14.05;;
47960;SDS011;33721;48.852;9.936;2024-01-30T11:12:21;26.38;;;13.07;;
47960;SDS011;33721;48.852;9.936;2024-01-30T11:15:04;23.98;;;12.05;;
47960;SDS011;33721;48.852;9.936;2024-01-30T11:20:20;23.00;;;11.93;;
47960;SDS011;33721;48.852;9.936;2024-01-30T11:23:00;19.90;;;11.07;;
47960;SDS011;33721;48.852;9.936;2024-01-30T11:25:30;24.23;;;11.63;;
47960;SDS011;33721;48.852;9.936;2024-01-30T11:27:57;19.52;;;8.85;;
47960;SDS011;33721;48.852;9.936;2024-01-30T11:30:26;18.95;;;9.77;;
47960;SDS011;33721;48.852;9.936;2024-01-30T11:35:29;22.48;;;11.27;;
47960;SDS011;33721;48.852;9.936;2024-01-30T11:37:57;17.00;;;8.25;;
47960;SDS011;33721;48.852;9.936;2024-01-30T11:40:25;12.18;;;5.78;;
47960;SDS011;33721;48.852;9.936;2024-01-30T11:42:53;16.70;;;8.02;;
47960;SDS011;33721;48.852;9.936;2024-01-30T11:45:20;16.00;;;8.10;;
47960;SDS011;33721;48.852;9.936;2024-01-30T11:47:45;22.55;;;9.20;;
47960;SDS011;33721;48.852;9.936;2024-01-30T11:50:11;15.70;;;7.20;;
47960;SDS011;33721;48.852;9.936;2024-01-30T11:52:37;12.50;;;6.50;;
47960;SDS011;33721;48.852;9.936;2024-01-30T11:55:03;16.63;;;7.90;;
47960;SDS011;33721;48.852;9.936;2024-01-30T11:57:29;16.67;;;6.72;;
47960;SDS011;33721;48.852;9.936;2024-01-30T11:59:55;13.90;;;6.63;;
47960;SDS011;33721;48.852;9.936;2024-01-30T12:02:21;13.32;;;7.18;;
47960;SDS011;33721;48.852;9.936;2024-01-30T12:04:47;16.70;;;7.57;;
47960;SDS011;33721;48.852;9.936;2024-01-30T12:07:12;10.70;;;5.50;;
47960;SDS011;33721;48.852;9.936;2024-01-30T12:09:41;14.05;;;7.57;;
47960;SDS011;33721;48.852;9.936;2024-01-30T12:12:07;17.58;;;6.03;;
47960;SDS011;33721;48.852;9.936;2024-01-30T12:14:37;14.03;;;6.23;;
47960;SDS011;33721;48.852;9.936;2024-01-30T12:17:05;13.80;;;5.82;;
47960;SDS011;33721;48.852;9.936;2024-01-30T12:19:33;12.93;;;6.05;;
47960;SDS011;33721;48.852;9.936;2024-01-30T12:21:59;15.73;;;6.40;;
47960;SDS011;33721;48.852;9.936;2024-01-30T12:24:28;14.05;;;5.65;;
47960;SDS011;33721;48.852;9.936;2024-01-30T12:26:57;14.82;;;5.70;;
47960;SDS011;33721;48.852;9.936;2024-01-30T12:29:23;14.05;;;5.57;;
47960;SDS011;33721;48.852;9.936;2024-01-30T12:31:52;12.77;;;5.85;;
47960;SDS011;33721;48.852;9.936;2024-01-30T12:34:18;11.60;;;5.55;;
47960;SDS011;33721;48.852;9.936;2024-01-30T12:36:46;10.90;;;5.47;;
47960;SDS011;33721;48.852;9.936;2024-01-30T12:39:12;11.95;;;5.68;;
47960;SDS011;33721;48.852;9.936;2024-01-30T12:41:39;10.55;;;5.45;;
47960;SDS011;33721;48.852;9.936;2024-01-30T12:44:05;11.02;;;5.30;;
47960;SDS011;33721;48.852;9.936;2024-01-30T12:46:31;14.70;;;4.45;;
47960;SDS011;33721;48.852;9.936;2024-01-30T12:48:59;8.60;;;4.60;;
47960;SDS011;33721;48.852;9.936;2024-01-30T12:51:25;12.60;;;4.95;;
47960;SDS011;33721;48.852;9.936;2024-01-30T12:53:51;9.70;;;4.65;;
47960;SDS011;33721;48.852;9.936;2024-01-30T12:56:16;8.95;;;4.15;;
47960;SDS011;33721;48.852;9.936;2024-01-30T12:58:42;8.90;;;4.22;;
47960;SDS011;33721;48.852;9.936;2024-01-30T13:01:08;9.45;;;4.15;;
47960;SDS011;33721;48.852;9.936;2024-01-30T13:03:34;8.02;;;3.95;;
47960;SDS011;33721;48.852;9.936;2024-01-30T13:06:00;7.88;;;4.50;;
47960;SDS011;33721;48.852;9.936;2024-01-30T13:08:26;9.45;;;4.20;;
47960;SDS011;33721;48.852;9.936;2024-01-30T13:10:51;8.90;;;3.90;;
47960;SDS011;33721;48.852;9.936;2024-01-30T13:13:17;9.32;;;4.03;;
47960;SDS011;33721;48.852;9.936;2024-01-30T13:15:42;9.10;;;4.15;;
47960;SDS011;33721;48.852;9.936;2024-01-30T13:18:08;10.10;;;3.45;;
47960;SDS011;33721;48.852;9.936;2024-01-30T13:20:33;8.95;;;4.40;;
47960;SDS011;33721;48.852;9.936;2024-01-30T13:22:59;6.95;;;3.83;;
47960;SDS011;33721;48.852;9.936;2024-01-30T13:25:25;8.52;;;3.72;;
47960;SDS011;33721;48.852;9.936;2024-01-30T13:27:51;8.48;;;4.30;;
47960;SDS011;33721;48.852;9.936;2024-01-30T13:30:16;11.73;;;3.80;;
47960;SDS011;33721;48.852;9.936;2024-01-30T13:32:42;7.30;;;3.65;;
47960;SDS011;33721;48.852;9.936;2024-01-30T13:35:09;10.68;;;3.90;;
47960;SDS011;33721;48.852;9.936;2024-01-30T13:37:35;6.95;;;3.55;;
47960;SDS011;33721;48.852;9.936;2024-01-30T13:40:02;7.10;;;3.63;;
47960;SDS011;33721;48.852;9.936;2024-01-30T13:44:57;11.13;;;3.85;;
47960;SDS011;33721;48.852;9.936;2024-01-30T13:47:23;7.95;;;3.67;;
47960;SDS011;33721;48.852;9.936;2024-01-30T13:49:48;7.18;;;3.85;;
47960;SDS011;33721;48.852;9.936;2024-01-30T13:52:14;8.25;;;3.92;;
47960;SDS011;33721;48.852;9.936;2024-01-30T13:54:40;10.95;;;4.20;;
47960;SDS011;33721;48.852;9.936;2024-01-30T13:57:05;13.25;;;4.40;;
47960;SDS011;33721;48.852;9.936;2024-01-30T13:59:32;10.10;;;4.63;;
47960;SDS011;33721;48.852;9.936;2024-01-30T14:01:58;10.32;;;4.00;;
47960;SDS011;33721;48.852;9.936;2024-01-30T14:04:24;12.73;;;4.40;;
47960;SDS011;33721;48.852;9.936;2024-01-30T14:06:49;7.95;;;4.10;;
47960;SDS011;33721;48.852;9.936;2024-01-30T14:09:15;11.55;;;5.25;;
47960;SDS011;33721;48.852;9.936;2024-01-30T14:11:41;9.00;;;4.90;;
47960;SDS011;33721;48.852;9.936;2024-01-30T14:14:07;9.50;;;4.70;;
47960;SDS011;33721;48.852;9.936;2024-01-30T14:16:33;10.43;;;4.60;;
47960;SDS011;33721;48.852;9.936;2024-01-30T14:18:59;9.80;;;4.80;;
47960;SDS011;33721;48.852;9.936;2024-01-30T14:21:25;11.15;;;4.82;;
47960;SDS011;33721;48.852;9.936;2024-01-30T14:23:50;9.35;;;4.90;;
47960;SDS011;33721;48.852;9.936;2024-01-30T14:26:16;13.50;;;4.40;;
47960;SDS011;33721;48.852;9.936;2024-01-30T14:28:41;10.88;;;4.28;;
47960;SDS011;33721;48.852;9.936;2024-01-30T14:31:08;7.20;;;4.22;;
47960;SDS011;33721;48.852;9.936;2024-01-30T14:33:34;11.48;;;4.25;;